Time;durP1;ratioP1;P1;durP2;ratioP2;P2;SDS_P1;SDS_P2;PMS_P1;PMS_P2;Temp;Humidity;BMP_temperature;BMP_pressure;BME280_temperature;BME280_humidity;BME280_pressure;Samples;Min_cycle;Max_cycle;Signal;HPM_P1;HPM_P2
2022/01/05 00:02:26;;;;;;;;;;;22.40;49.20;;;;;;5116519;28;20379;-58
2022/01/05 00:04:55;;;;;;;;;;;22.40;49.20;;;;;;5115574;27;19930;-52
2022/01/05 00:07:22;;;;;;;;;;;22.40;49.20;;;;;;5116753;28;20290;-49
2022/01/05 00:09:49;;;;;;;;;;;22.40;49.70;;;;;;5116401;28;19931;-55
2022/01/05 00:12:16;;;;;;;;;;;22.40;49.10;;;;;;5116228;28;19923;-54
2022/01/05 00:14:43;;;;;;;;;;;22.40;49.10;;;;;;5116304;28;19931;-57
2022/01/05 00:17:10;;;;;;;;;;;22.40;49.10;;;;;;5116466;28;19924;-53
2022/01/05 00:19:39;;;;;;;;;;;22.40;49.20;;;;;;5114901;27;19923;-51
2022/01/05 00:22:06;;;;;;;;;;;22.40;49.20;;;;;;5116013;28;19924;-55
2022/01/05 00:24:33;;;;;;;;;;;22.40;49.20;;;;;;5116113;28;19976;-54
2022/01/05 00:27:00;;;;;;;;;;;22.40;49.20;;;;;;5116406;28;20293;-53
2022/01/05 00:29:27;;;;;;;;;;;22.40;49.20;;;;;;5116040;28;20371;-54
2022/01/05 00:31:54;;;;;;;;;;;22.40;49.20;;;;;;5116282;28;20290;-57
2022/01/05 00:34:21;;;;;;;;;;;22.40;49.20;;;;;;5115538;27;19935;-54
2022/01/05 00:36:48;;;;;;;;;;;22.40;49.20;;;;;;5115900;28;19924;-54
2022/01/05 00:39:15;;;;;;;;;;;22.40;49.20;;;;;;5116052;28;19923;-55
2022/01/05 00:41:42;;;;;;;;;;;22.40;49.20;;;;;;5115712;28;20344;-57
2022/01/05 00:44:09;;;;;;;;;;;22.40;49.20;;;;;;5115748;28;19973;-54
2022/01/05 00:46:36;;;;;;;;;;;22.40;49.20;;;;;;5097675;28;19924;-54
2022/01/05 00:49:03;;;;;;;;;;;22.40;49.20;;;;;;5114898;28;19924;-57
2022/01/05 00:51:30;;;;;;;;;;;22.40;49.20;;;;;;5115264;28;19931;-55
2022/01/05 00:53:57;;;;;;;;;;;22.40;49.20;;;;;;5115662;28;20082;-56
2022/01/05 00:56:24;;;;;;;;;;;22.40;49.20;;;;;;5115517;28;19931;-51
2022/01/05 00:58:51;;;;;;;;;;;22.40;49.20;;;;;;5115434;28;19934;-52
2022/01/05 01:01:18;;;;;;;;;;;22.40;49.30;;;;;;5097326;28;19924;-55
2022/01/05 01:03:46;;;;;;;;;;;22.40;49.20;;;;;;5115346;28;19967;-52
2022/01/05 01:06:13;;;;;;;;;;;22.40;49.20;;;;;;5114335;27;19924;-55
2022/01/05 01:08:40;;;;;;;;;;;22.40;49.20;;;;;;5115236;28;20394;-55
2022/01/05 01:11:07;;;;;;;;;;;22.40;49.20;;;;;;5115174;28;19923;-54
2022/01/05 01:13:34;;;;;;;;;;;22.40;49.20;;;;;;5115026;28;19928;-52
2022/01/05 01:16:01;;;;;;;;;;;22.40;49.20;;;;;;5115421;28;19927;-52
2022/01/05 01:18:28;;;;;;;;;;;22.40;49.20;;;;;;5114878;28;20272;-56
2022/01/05 01:20:56;;;;;;;;;;;22.40;49.20;;;;;;5114080;28;19924;-52
2022/01/05 01:23:23;;;;;;;;;;;22.40;49.20;;;;;;5114779;28;19924;-57
2022/01/05 01:25:50;;;;;;;;;;;22.40;49.20;;;;;;5115252;28;19924;-51
2022/01/05 01:28:19;;;;;;;;;;;22.40;49.20;;;;;;5114364;28;20386;-47
2022/01/05 01:30:46;;;;;;;;;;;22.30;49.10;;;;;;5114849;28;19924;-54
2022/01/05 01:33:13;;;;;;;;;;;22.40;49.20;;;;;;5115090;28;19924;-53
2022/01/05 01:35:40;;;;;;;;;;;22.40;49.20;;;;;;5113512;27;19924;-53
2022/01/05 01:38:07;;;;;;;;;;;22.30;49.10;;;;;;5114712;28;19973;-52
2022/01/05 01:40:34;;;;;;;;;;;22.40;49.20;;;;;;5114558;28;19927;-53
2022/01/05 01:43:03;;;;;;;;;;;22.30;49.10;;;;;;5096858;28;19928;-50
2022/01/05 01:45:30;;;;;;;;;;;22.30;49.10;;;;;;5114604;28;19930;-47
2022/01/05 01:47:57;;;;;;;;;;;22.40;49.20;;;;;;5114851;28;19993;-55
2022/01/05 01:50:24;;;;;;;;;;;22.30;49.20;;;;;;5095575;28;19927;-51
2022/01/05 01:52:51;;;;;;;;;;;22.30;49.20;;;;;;5114289;28;20391;-50
2022/01/05 01:55:19;;;;;;;;;;;22.30;49.20;;;;;;5096461;28;19927;-49
2022/01/05 01:57:46;;;;;;;;;;;22.30;49.10;;;;;;5114719;28;19930;-56
2022/01/05 02:00:14;;;;;;;;;;;22.30;49.20;;;;;;5114290;28;19928;-46
2022/01/05 02:02:42;;;;;;;;;;;22.30;49.10;;;;;;5114664;28;20337;-50
2022/01/05 02:05:09;;;;;;;;;;;22.30;49.10;;;;;;5113618;27;21915;-50
2022/01/05 02:07:36;;;;;;;;;;;22.30;49.20;;;;;;5114260;28;19930;-58
2022/01/05 02:10:04;;;;;;;;;;;22.30;49.20;;;;;;5114268;28;19969;-49
2022/01/05 02:12:31;;;;;;;;;;;22.30;49.20;;;;;;5114141;28;19928;-56
2022/01/05 02:14:58;;;;;;;;;;;22.30;49.20;;;;;;5114213;28;19924;-51
2022/01/05 02:17:42;;;;;;;;;;;22.30;49.20;;;;;;5114277;28;19923;-56
2022/01/05 02:20:14;;;;;;;;;;;22.30;49.20;;;;;;5113281;28;19924;-58
2022/01/05 02:22:41;;;;;;;;;;;22.30;49.20;;;;;;5114323;28;19924;-53
2022/01/05 02:25:08;;;;;;;;;;;22.30;49.20;;;;;;5114112;28;19969;-49
2022/01/05 02:27:37;;;;;;;;;;;22.30;49.20;;;;;;5114397;28;20307;-49
2022/01/05 02:30:04;;;;;;;;;;;22.30;49.20;;;;;;5114068;28;19924;-52
2022/01/05 02:32:31;;;;;;;;;;;22.30;49.20;;;;;;5114040;28;20011;-51
2022/01/05 02:34:58;;;;;;;;;;;22.30;49.20;;;;;;5096082;28;19924;-50
2022/01/05 02:37:25;;;;;;;;;;;22.30;49.20;;;;;;5113241;28;19923;-54
2022/01/05 02:39:53;;;;;;;;;;;22.30;49.20;;;;;;5115355;28;19930;-57
2022/01/05 02:42:24;;;;;;;;;;;22.30;49.20;;;;;;5118332;28;20298;-55
2022/01/05 02:44:51;;;;;;;;;;;22.30;49.20;;;;;;5118039;28;19949;-57
2022/01/05 02:47:18;;;;;;;;;;;22.30;49.20;;;;;;5118030;28;19923;-57
2022/01/05 02:49:45;;;;;;;;;;;22.30;49.20;;;;;;5118303;28;20370;-57
2022/01/05 02:52:13;;;;;;;;;;;22.30;49.20;;;;;;5098676;28;19924;-53
2022/01/05 02:54:41;;;;;;;;;;;22.30;49.20;;;;;;5118204;28;19947;-55
2022/01/05 02:57:08;;;;;;;;;;;22.30;49.20;;;;;;5118134;28;19923;-53
2022/01/05 02:59:35;;;;;;;;;;;22.30;49.20;;;;;;5117704;28;19928;-59
2022/01/05 03:02:03;;;;;;;;;;;22.30;49.20;;;;;;5118047;28;19924;-49
2022/01/05 03:04:31;;;;;;;;;;;22.30;49.20;;;;;;5117709;28;20358;-55
2022/01/05 03:06:58;;;;;;;;;;;22.30;49.20;;;;;;5116515;27;19924;-53
2022/01/05 03:09:25;;;;;;;;;;;22.30;49.20;;;;;;5117616;28;19924;-54
2022/01/05 03:11:52;;;;;;;;;;;22.30;49.20;;;;;;5117431;28;19924;-55
2022/01/05 03:14:20;;;;;;;;;;;22.30;49.20;;;;;;5117503;28;19930;-56
2022/01/05 03:16:47;;;;;;;;;;;22.20;49.10;;;;;;5117449;28;19923;-55
2022/01/05 03:19:14;;;;;;;;;;;22.30;49.20;;;;;;5117360;28;19963;-53
2022/01/05 03:21:41;;;;;;;;;;;22.20;49.10;;;;;;5116535;27;20298;-52
2022/01/05 03:24:08;;;;;;;;;;;22.20;49.10;;;;;;5117138;28;19924;-49
2022/01/05 03:26:35;;;;;;;;;;;22.20;49.10;;;;;;5099286;28;19924;-50
2022/01/05 03:29:02;;;;;;;;;;;22.20;49.10;;;;;;5117517;28;19993;-54
2022/01/05 03:31:29;;;;;;;;;;;22.20;49.10;;;;;;5117171;28;19924;-50
2022/01/05 03:33:57;;;;;;;;;;;22.20;49.20;;;;;;5117127;28;19930;-50
2022/01/05 03:36:24;;;;;;;;;;;22.20;49.20;;;;;;5115965;27;19924;-53
2022/01/05 03:38:51;;;;;;;;;;;22.20;49.20;;;;;;5117350;28;20294;-51
2022/01/05 03:41:18;;;;;;;;;;;22.20;49.20;;;;;;5117098;28;19928;-49
2022/01/05 03:43:44;;;;;;;;;;;22.20;49.10;;;;;;5116949;28;19924;-57
2022/01/05 03:46:11;;;;;;;;;;;22.20;49.10;;;;;;5116903;28;19927;-57
2022/01/05 03:48:38;;;;;;;;;;;22.20;49.10;;;;;;5116826;28;20044;-56
2022/01/05 03:51:05;;;;;;;;;;;22.20;49.10;;;;;;5115170;28;20023;-56
2022/01/05 03:53:32;;;;;;;;;;;22.20;49.10;;;;;;5116526;28;19945;-50
2022/01/05 03:56:01;;;;;;;;;;;22.20;49.20;;;;;;5116987;28;20041;-53
2022/01/05 03:58:28;;;;;;;;;;;22.20;49.80;;;;;;5116937;28;20037;-55
2022/01/05 04:00:56;;;;;;;;;;;22.20;49.20;;;;;;5116559;28;19997;-57
2022/01/05 04:03:23;;;;;;;;;;;22.20;49.20;;;;;;5116555;28;19924;-55
2022/01/05 04:05:50;;;;;;;;;;;22.20;49.20;;;;;;5117385;28;19931;-49
2022/01/05 04:08:18;;;;;;;;;;;22.20;49.20;;;;;;5115420;27;19931;-50
2022/01/05 04:10:45;;;;;;;;;;;22.20;49.20;;;;;;5098748;28;20290;-50
2022/01/05 04:13:13;;;;;;;;;;;22.20;49.20;;;;;;5116603;28;19924;-51
2022/01/05 04:15:40;;;;;;;;;;;22.20;49.20;;;;;;5116665;28;19924;-51
2022/01/05 04:18:07;;;;;;;;;;;22.20;49.30;;;;;;5116135;28;19931;-56
2022/01/05 04:20:34;;;;;;;;;;;22.20;49.20;;;;;;5116506;28;19934;-56
2022/01/05 04:23:01;;;;;;;;;;;22.20;49.30;;;;;;5114732;27;20014;-48
2022/01/05 04:25:28;;;;;;;;;;;22.20;49.30;;;;;;5116135;28;19931;-47
2022/01/05 04:27:55;;;;;;;;;;;22.20;49.30;;;;;;5098948;28;20003;-54
2022/01/05 04:30:22;;;;;;;;;;;22.20;49.30;;;;;;5098377;28;20336;-50
2022/01/05 04:32:49;;;;;;;;;;;22.20;49.30;;;;;;5115986;28;19923;-52
2022/01/05 04:35:36;;;;;;;;;;;22.20;49.30;;;;;;5116230;28;19928;-51
2022/01/05 04:38:04;;;;;;;;;;;22.20;49.30;;;;;;5114709;27;19924;-52
2022/01/05 04:40:31;;;;;;;;;;;22.10;49.20;;;;;;5115766;28;19923;-56
2022/01/05 04:42:58;;;;;;;;;;;22.20;49.30;;;;;;5115826;28;19950;-56
2022/01/05 04:45:25;;;;;;;;;;;22.20;49.30;;;;;;5115734;28;19923;-51
2022/01/05 04:47:52;;;;;;;;;;;22.20;49.30;;;;;;5116004;28;19931;-50
2022/01/05 04:50:20;;;;;;;;;;;22.20;49.30;;;;;;5115679;28;19976;-57
2022/01/05 04:52:47;;;;;;;;;;;22.20;49.30;;;;;;5114380;27;19924;-54
2022/01/05 04:55:14;;;;;;;;;;;22.10;49.20;;;;;;5115579;28;19923;-50
2022/01/05 04:57:41;;;;;;;;;;;22.10;49.20;;;;;;5115526;28;19977;-50
2022/01/05 05:00:08;;;;;;;;;;;22.10;49.20;;;;;;5115719;28;19924;-56
2022/01/05 05:02:35;;;;;;;;;;;22.10;49.20;;;;;;5114877;28;19969;-52
2022/01/05 05:05:03;;;;;;;;;;;22.10;49.20;;;;;;5115691;28;19924;-49
2022/01/05 05:07:30;;;;;;;;;;;22.10;49.20;;;;;;5114405;27;19931;-51
2022/01/05 05:10:03;;;;;;;;;;;22.10;49.20;;;;;;5115592;28;19923;-51
2022/01/05 05:12:30;;;;;;;;;;;22.10;49.20;;;;;;5115374;28;19924;-53
2022/01/05 05:14:57;;;;;;;;;;;22.10;49.20;;;;;;5115131;28;19924;-51
2022/01/05 05:17:24;;;;;;;;;;;22.10;49.20;;;;;;5115230;28;19969;-55
2022/01/05 05:19:51;;;;;;;;;;;22.10;49.20;;;;;;5115100;28;20390;-49
2022/01/05 05:22:18;;;;;;;;;;;22.10;49.20;;;;;;5113709;28;19938;-48
2022/01/05 05:24:45;;;;;;;;;;;22.10;49.20;;;;;;5115296;28;19947;-52
2022/01/05 05:27:12;;;;;;;;;;;22.10;49.20;;;;;;5097249;28;19930;-48
2022/01/05 05:29:39;;;;;;;;;;;22.10;49.80;;;;;;5115213;28;20291;-49
2022/01/05 05:32:06;;;;;;;;;;;22.10;49.20;;;;;;5115132;28;19924;-49
2022/01/05 05:34:33;;;;;;;;;;;22.10;49.20;;;;;;5115104;28;19927;-53
2022/01/05 05:37:01;;;;;;;;;;;22.10;49.20;;;;;;5115039;28;19976;-52
2022/01/05 05:39:28;;;;;;;;;;;22.10;49.20;;;;;;5114088;28;19946;-49
2022/01/05 05:41:55;;;;;;;;;;;22.10;49.20;;;;;;5114466;28;19931;-47
2022/01/05 05:44:22;;;;;;;;;;;22.10;49.20;;;;;;5114953;28;19923;-47
2022/01/05 05:46:49;;;;;;;;;;;22.10;49.20;;;;;;5114591;28;19996;-54
2022/01/05 05:49:16;;;;;;;;;;;22.10;49.20;;;;;;5114829;28;20330;-51
2022/01/05 05:51:43;;;;;;;;;;;22.10;49.20;;;;;;5114508;28;20383;-53
2022/01/05 05:54:11;;;;;;;;;;;22.10;49.20;;;;;;5113654;27;20298;-49
2022/01/05 05:56:38;;;;;;;;;;;22.10;49.20;;;;;;5114812;28;19978;-47
2022/01/05 05:59:05;;;;;;;;;;;22.10;49.20;;;;;;5114418;28;19930;-54
2022/01/05 06:01:32;;;;;;;;;;;22.10;49.30;;;;;;5114312;28;19928;-57
2022/01/05 06:03:59;;;;;;;;;;;22.10;49.30;;;;;;5114662;28;19927;-57
2022/01/05 06:06:27;;;;;;;;;;;22.10;49.30;;;;;;5114346;28;19924;-56
2022/01/05 06:08:55;;;;;;;;;;;22.10;49.30;;;;;;5113140;28;19934;-54
2022/01/05 06:11:22;;;;;;;;;;;22.10;49.30;;;;;;5114191;28;19930;-54
2022/01/05 06:13:50;;;;;;;;;;;22.10;49.30;;;;;;5114343;28;19923;-57
2022/01/05 06:16:17;;;;;;;;;;;22.10;49.30;;;;;;5114511;28;20305;-52
2022/01/05 06:18:44;;;;;;;;;;;22.10;49.30;;;;;;5114026;28;20018;-53
2022/01/05 06:21:11;;;;;;;;;;;22.10;49.30;;;;;;5114062;28;19931;-53
2022/01/05 06:23:38;;;;;;;;;;;22.10;49.30;;;;;;5113026;28;19927;-56
2022/01/05 06:26:05;;;;;;;;;;;22.10;49.30;;;;;;5114388;28;19931;-56
2022/01/05 06:28:32;;;;;;;;;;;22.10;49.30;;;;;;5114070;28;19928;-55
2022/01/05 06:30:59;;;;;;;;;;;22.10;49.30;;;;;;5114038;28;19931;-54
2022/01/05 06:33:26;;;;;;;;;;;22.10;49.30;;;;;;5114343;28;19924;-45
2022/01/05 06:35:53;;;;;;;;;;;22.10;49.30;;;;;;5114322;28;20359;-52
2022/01/05 06:38:20;;;;;;;;;;;22.00;49.20;;;;;;5113343;28;19931;-55
2022/01/05 06:40:47;;;;;;;;;;;22.10;49.30;;;;;;5114179;28;19931;-55
2022/01/05 06:43:14;;;;;;;;;;;22.00;49.30;;;;;;5095731;28;19928;-50
2022/01/05 06:45:41;;;;;;;;;;;22.00;49.20;;;;;;5113776;28;19923;-56
2022/01/05 06:48:08;;;;;;;;;;;22.00;49.20;;;;;;5114161;28;20457;-57
2022/01/05 06:50:35;;;;;;;;;;;22.00;49.20;;;;;;5113834;28;19924;-56
2022/01/05 06:53:03;;;;;;;;;;;22.00;49.20;;;;;;5113002;28;19923;-50
2022/01/05 06:55:29;;;;;;;;;;;22.00;49.30;;;;;;5113823;28;19931;-58
2022/01/05 06:57:56;;;;;;;;;;;22.00;49.20;;;;;;5096055;28;20341;-57
2022/01/05 07:00:24;;;;;;;;;;;22.00;49.20;;;;;;5113829;28;19924;-56
2022/01/05 07:02:51;;;;;;;;;;;22.00;49.20;;;;;;5113716;28;19924;-55
2022/01/05 07:05:18;;;;;;;;;;;22.00;49.20;;;;;;5114070;28;19971;-55
2022/01/05 07:07:46;;;;;;;;;;;22.00;49.30;;;;;;5114012;28;20337;-56
2022/01/05 07:10:13;;;;;;;;;;;22.00;49.30;;;;;;5112580;28;19924;-57
2022/01/05 07:12:45;;;;;;;;;;;22.00;49.30;;;;;;5113890;28;20306;-55
2022/01/05 07:15:12;;;;;;;;;;;22.00;49.30;;;;;;5113653;28;19937;-53
2022/01/05 07:17:39;;;;;;;;;;;22.00;49.30;;;;;;5113827;28;20338;-57
2022/01/05 07:20:07;;;;;;;;;;;22.00;49.30;;;;;;5113945;28;19923;-57
2022/01/05 07:22:34;;;;;;;;;;;22.00;49.30;;;;;;5095677;28;20336;-54
2022/01/05 07:25:01;;;;;;;;;;;22.00;49.30;;;;;;5112755;28;19924;-53
2022/01/05 07:27:28;;;;;;;;;;;22.00;49.30;;;;;;5117004;28;19969;-51
2022/01/05 07:29:55;;;;;;;;;;;22.00;49.30;;;;;;5117212;28;20379;-50
2022/01/05 07:32:22;;;;;;;;;;;22.00;49.30;;;;;;5117169;28;19924;-49
2022/01/05 07:34:49;;;;;;;;;;;22.00;49.20;;;;;;5117099;28;19924;-49
2022/01/05 07:37:16;;;;;;;;;;;22.00;49.20;;;;;;5116903;28;19924;-53
2022/01/05 07:39:43;;;;;;;;;;;22.00;49.20;;;;;;5116383;27;19923;-48
2022/01/05 07:42:10;;;;;;;;;;;22.00;49.30;;;;;;5117111;28;20276;-49
2022/01/05 07:44:37;;;;;;;;;;;22.00;49.20;;;;;;5116963;28;19928;-53
2022/01/05 07:47:05;;;;;;;;;;;22.00;49.20;;;;;;5116878;28;19957;-51
2022/01/05 07:49:32;;;;;;;;;;;22.00;49.20;;;;;;5116818;28;19924;-53
2022/01/05 07:51:59;;;;;;;;;;;22.00;49.20;;;;;;5117783;28;20321;-57
2022/01/05 07:54:26;;;;;;;;;;;22.00;49.20;;;;;;5115606;27;19931;-51
2022/01/05 07:56:53;;;;;;;;;;;22.00;49.20;;;;;;5116696;28;19950;-49
2022/01/05 07:59:20;;;;;;;;;;;22.00;49.20;;;;;;5116962;28;20029;-57
2022/01/05 08:01:47;;;;;;;;;;;22.00;49.20;;;;;;5116551;28;19923;-56
2022/01/05 08:04:15;;;;;;;;;;;22.00;49.20;;;;;;5116812;28;19928;-48
2022/01/05 08:06:43;;;;;;;;;;;22.00;49.20;;;;;;5116437;28;19931;-54
2022/01/05 08:09:10;;;;;;;;;;;22.00;49.20;;;;;;5115804;27;19931;-51
2022/01/05 08:11:37;;;;;;;;;;;22.00;49.20;;;;;;5116601;28;19927;-57
2022/01/05 08:14:04;;;;;;;;;;;22.00;49.20;;;;;;5116359;28;19931;-56
2022/01/05 08:16:31;;;;;;;;;;;22.00;49.20;;;;;;5116324;28;19923;-51
2022/01/05 08:18:58;;;;;;;;;;;22.00;49.20;;;;;;5116456;28;20391;-56
2022/01/05 08:21:25;;;;;;;;;;;22.00;49.20;;;;;;5116919;28;19939;-51
2022/01/05 08:23:52;;;;;;;;;;;22.00;49.20;;;;;;5115318;27;19924;-53
2022/01/05 08:26:19;;;;;;;;;;;22.00;49.20;;;;;;5115847;28;19927;-55
2022/01/05 08:28:46;;;;;;;;;;;22.00;49.20;;;;;;5116077;28;19928;-53
2022/01/05 08:31:13;;;;;;;;;;;22.00;49.20;;;;;;5116030;28;19924;-52
2022/01/05 08:33:46;;;;;;;;;;;22.00;49.20;;;;;;5116354;28;19923;-57
2022/01/05 08:36:13;;;;;;;;;;;22.00;49.20;;;;;;5115932;28;20007;-55
2022/01/05 08:38:40;;;;;;;;;;;22.00;49.20;;;;;;5116197;28;20264;-55
2022/01/05 08:41:07;;;;;;;;;;;22.00;49.20;;;;;;5114603;27;19930;-57
2022/01/05 08:43:34;;;;;;;;;;;22.00;49.20;;;;;;5116033;28;19928;-55
2022/01/05 08:46:01;;;;;;;;;;;22.00;49.20;;;;;;5116062;28;19930;-58
2022/01/05 08:48:28;;;;;;;;;;;22.00;49.20;;;;;;5115699;28;19930;-58
2022/01/05 08:50:55;;;;;;;;;;;22.00;49.10;;;;;;5115899;28;20290;-52
2022/01/05 08:53:23;;;;;;;;;;;22.00;49.70;;;;;;5097801;28;19924;-50
2022/01/05 08:55:51;;;;;;;;;;;22.00;49.20;;;;;;5115019;27;19946;-57
2022/01/05 08:58:19;;;;;;;;;;;22.00;49.20;;;;;;5115424;28;19923;-58
2022/01/05 09:00:46;;;;;;;;;;;22.00;49.10;;;;;;5097426;28;19935;-55
2022/01/05 09:03:14;;;;;;;;;;;22.00;49.10;;;;;;5115649;28;19930;-56
2022/01/05 09:05:41;;;;;;;;;;;22.00;49.20;;;;;;5115391;28;19924;-55
2022/01/05 09:08:08;;;;;;;;;;;22.00;49.10;;;;;;5115317;28;19924;-54
2022/01/05 09:10:36;;;;;;;;;;;22.00;49.10;;;;;;5114093;27;19931;-51
2022/01/05 09:13:04;;;;;;;;;;;22.00;49.10;;;;;;5115502;28;19955;-57
2022/01/05 09:15:33;;;;;;;;;;;22.00;49.10;;;;;;5115477;28;19928;-56
2022/01/05 09:18:01;;;;;;;;;;;22.00;49.10;;;;;;5115134;28;19924;-50
2022/01/05 09:20:28;;;;;;;;;;;22.00;49.10;;;;;;5115057;28;19930;-57
2022/01/05 09:22:56;;;;;;;;;;;22.00;49.10;;;;;;5114674;28;19924;-52
2022/01/05 09:25:23;;;;;;;;;;;22.00;49.00;;;;;;5113666;28;20387;-52
2022/01/05 09:27:51;;;;;;;;;;;22.00;49.00;;;;;;5114863;28;19977;-51
2022/01/05 09:30:20;;;;;;;;;;;22.00;49.00;;;;;;5115953;28;19986;-56
2022/01/05 09:32:47;;;;;;;;;;;22.00;49.00;;;;;;5115643;28;19924;-56
2022/01/05 09:35:17;;;;;;;;;;;22.00;49.00;;;;;;5115105;28;20297;-55
2022/01/05 09:43:26;;;;;;;;;;;22.00;49.00;;;;;;5051949;28;19925;-54
2022/01/05 09:46:16;;;;;;;;;;;22.00;49.00;;;;;;5052193;28;19925;-50
2022/01/05 09:48:56;;;;;;;;;;;22.00;49.00;;;;;;5051573;28;19925;-55
2022/01/05 09:51:24;;;;;;;;;;;22.00;49.00;;;;;;5052699;28;19975;-56
2022/01/05 09:53:52;;;;;;;;;;;22.00;49.00;;;;;;5051795;28;19924;-55
2022/01/05 09:56:39;;;;;;;;;;;22.00;49.00;;;;;;5050675;28;19925;-54
2022/01/05 09:59:06;;;;;;;;;;;22.00;49.00;;;;;;5051648;28;20426;-52
2022/01/05 10:01:35;;;;;;;;;;;22.00;49.00;;;;;;5051668;28;19929;-53
2022/01/05 10:04:03;;;;;;;;;;;22.00;49.00;;;;;;5035362;28;19924;-54
2022/01/05 10:06:34;;;;;;;;;;;22.00;48.90;;;;;;5051700;28;20296;-56
2022/01/05 10:09:02;;;;;;;;;;;22.00;48.90;;;;;;5051654;28;19925;-52
2022/01/05 10:11:29;;;;;;;;;;;22.00;48.90;;;;;;5050414;28;20024;-58
2022/01/05 10:13:56;;;;;;;;;;;22.00;48.90;;;;;;5051611;28;19929;-55
2022/01/05 10:16:24;;;;;;;;;;;22.00;48.90;;;;;;5063891;28;20315;-55
2022/01/05 10:18:51;;;;;;;;;;;22.00;48.90;;;;;;5113944;28;20007;-53
2022/01/05 10:21:18;;;;;;;;;;;22.00;48.90;;;;;;5114335;28;19924;-50
2022/01/05 10:23:46;;;;;;;;;;;22.00;48.90;;;;;;5113854;28;19924;-57
2022/01/05 10:26:30;;;;;;;;;;;22.00;48.80;;;;;;5113249;28;19977;-54
2022/01/05 10:28:57;;;;;;;;;;;22.00;48.80;;;;;;5114090;28;19938;-56
2022/01/05 10:31:26;;;;;;;;;;;22.00;48.80;;;;;;5114075;28;19924;-50
2022/01/05 10:33:53;;;;;;;;;;;22.00;48.80;;;;;;5114013;28;19924;-57
2022/01/05 10:36:21;;;;;;;;;;;22.00;48.80;;;;;;5113980;28;19924;-55
2022/01/05 10:38:55;;;;;;;;;;;22.00;48.80;;;;;;5113969;28;20379;-54
2022/01/05 10:41:24;;;;;;;;;;;22.00;48.80;;;;;;5112668;28;19932;-51
2022/01/05 10:44:11;;;;;;;;;;;22.00;48.80;;;;;;5113829;28;19923;-51
2022/01/05 10:46:39;;;;;;;;;;;22.00;48.80;;;;;;5114190;28;20344;-57
2022/01/05 10:49:07;;;;;;;;;;;22.00;48.80;;;;;;5113887;28;19974;-54
2022/01/05 10:51:34;;;;;;;;;;;22.10;48.80;;;;;;5113879;28;19928;-54
2022/01/05 10:54:12;;;;;;;;;;;22.10;48.80;;;;;;5113659;28;19931;-49
2022/01/05 10:56:39;;;;;;;;;;;22.10;48.80;;;;;;5113036;28;19946;-57
2022/01/05 10:59:06;;;;;;;;;;;22.10;48.80;;;;;;5113828;28;19931;-58
2022/01/05 11:01:33;;;;;;;;;;;22.10;48.80;;;;;;5116050;28;19924;-54
2022/01/05 11:04:20;;;;;;;;;;;22.10;48.80;;;;;;5117697;28;19928;-50
2022/01/05 11:06:56;;;;;;;;;;;22.10;48.80;;;;;;5117676;28;19930;-58
2022/01/05 11:09:24;;;;;;;;;;;22.10;48.80;;;;;;5117635;28;19924;-49
2022/01/05 11:11:51;;;;;;;;;;;22.10;48.80;;;;;;5116364;27;20029;-50
2022/01/05 11:14:32;;;;;;;;;;;22.10;48.80;;;;;;5117545;28;19924;-47
2022/01/05 11:17:00;;;;;;;;;;;22.10;48.80;;;;;;5117468;28;19923;-53
2022/01/05 11:19:36;;;;;;;;;;;22.10;48.70;;;;;;5117313;28;20348;-47
2022/01/05 11:22:14;;;;;;;;;;;22.10;48.70;;;;;;5117421;28;19927;-50
2022/01/05 11:24:46;;;;;;;;;;;22.10;48.70;;;;;;5117370;28;19923;-49
2022/01/05 11:27:14;;;;;;;;;;;22.10;48.70;;;;;;5116151;27;19924;-55
2022/01/05 11:29:42;;;;;;;;;;;22.10;48.70;;;;;;5117621;28;19924;-48
2022/01/05 11:32:11;;;;;;;;;;;22.10;48.70;;;;;;5117244;28;19931;-54
2022/01/05 11:34:39;;;;;;;;;;;22.10;48.60;;;;;;5117485;28;20294;-53
2022/01/05 11:37:07;;;;;;;;;;;22.10;48.60;;;;;;5117459;28;20268;-56
2022/01/05 11:39:40;;;;;;;;;;;22.10;48.60;;;;;;5117384;28;19924;-58
2022/01/05 11:42:10;;;;;;;;;;;22.10;48.70;;;;;;5116163;27;19924;-53
2022/01/05 11:44:47;;;;;;;;;;;22.10;48.60;;;;;;5117059;28;19967;-55
2022/01/05 11:47:19;;;;;;;;;;;22.10;48.60;;;;;;5116968;28;19928;-54
2022/01/05 11:49:46;;;;;;;;;;;22.10;48.60;;;;;;5117181;28;19924;-55
2022/01/05 11:52:13;;;;;;;;;;;22.10;48.60;;;;;;5116661;28;19927;-58
2022/01/05 11:54:40;;;;;;;;;;;22.10;48.60;;;;;;5116781;28;19924;-49
2022/01/05 11:57:07;;;;;;;;;;;22.10;48.60;;;;;;5115839;27;19949;-54
2022/01/05 11:59:36;;;;;;;;;;;22.10;48.50;;;;;;5116706;28;19924;-49
2022/01/05 12:02:09;;;;;;;;;;;22.20;48.60;;;;;;5116599;28;19924;-53
2022/01/05 12:04:52;;;;;;;;;;;22.20;48.50;;;;;;5116591;28;20429;-50
2022/01/05 12:07:37;;;;;;;;;;;22.20;48.50;;;;;;5098525;28;19931;-50
2022/01/05 12:10:13;;;;;;;;;;;22.20;48.50;;;;;;5116799;28;19930;-54
2022/01/05 12:12:52;;;;;;;;;;;22.10;48.50;;;;;;5115161;27;20317;-52
2022/01/05 12:15:43;;;;;;;;;;;22.10;48.40;;;;;;5116709;28;19924;-56
2022/01/05 12:18:24;;;;;;;;;;;22.10;48.50;;;;;;5106634;28;19946;-55
2022/01/05 12:20:52;;;;;;;;;;;22.10;49.10;;;;;;5116623;28;19923;-52
2022/01/05 12:23:25;;;;;;;;;;;22.10;48.50;;;;;;5115544;28;19930;-56
2022/01/05 12:26:05;;;;;;;;;;;22.10;48.50;;;;;;5116238;28;20383;-58
2022/01/05 12:28:33;;;;;;;;;;;22.10;48.50;;;;;;5114581;27;19998;-55
2022/01/05 12:31:00;;;;;;;;;;;22.10;48.50;;;;;;5115520;28;19930;-48
2022/01/05 12:33:40;;;;;;;;;;;22.10;48.50;;;;;;5116367;28;19950;-57
2022/01/05 12:36:08;;;;;;;;;;;22.10;48.50;;;;;;5116313;28;20286;-51
2022/01/05 12:38:35;;;;;;;;;;;22.10;48.50;;;;;;5115472;28;19931;-48
2022/01/05 12:41:15;;;;;;;;;;;22.10;48.50;;;;;;5115449;28;19924;-52
2022/01/05 12:43:43;;;;;;;;;;;22.10;48.50;;;;;;5114301;27;19927;-46
2022/01/05 12:46:11;;;;;;;;;;;22.10;48.50;;;;;;5116061;28;20018;-50
2022/01/05 12:48:59;;;;;;;;;;;22.10;48.50;;;;;;5115290;28;19924;-55
2022/01/05 12:51:33;;;;;;;;;;;22.10;48.50;;;;;;5115451;28;19993;-51
2022/01/05 12:54:01;;;;;;;;;;;22.10;48.50;;;;;;5115358;28;19931;-48
2022/01/05 12:56:40;;;;;;;;;;;22.10;48.60;;;;;;5115611;28;20302;-52
2022/01/05 12:59:09;;;;;;;;;;;22.10;48.60;;;;;;5115445;27;19951;-57
2022/01/05 13:01:36;;;;;;;;;;;22.10;48.60;;;;;;5115760;28;19923;-55
2022/01/05 13:04:08;;;;;;;;;;;22.10;48.60;;;;;;5115172;28;19924;-56
2022/01/05 13:06:37;;;;;;;;;;;22.10;48.60;;;;;;5097640;28;19935;-56
2022/01/05 13:09:12;;;;;;;;;;;22.10;48.60;;;;;;5114670;27;19969;-59
2022/01/05 13:11:44;;;;;;;;;;;22.10;48.60;;;;;;5114975;28;20295;-56
2022/01/05 13:14:21;;;;;;;;;;;22.10;48.60;;;;;;5113915;27;19927;-53
2022/01/05 13:16:50;;;;;;;;;;;22.10;48.60;;;;;;5114862;28;19931;-55
2022/01/05 13:19:31;;;;;;;;;;;22.10;48.60;;;;;;5114940;28;20028;-51
2022/01/05 13:22:00;;;;;;;;;;;22.10;48.70;;;;;;5114660;28;19924;-53
2022/01/05 13:24:44;;;;;;;;;;;22.00;48.60;;;;;;5113792;28;19928;-57
2022/01/05 13:27:13;;;;;;;;;;;22.00;48.60;;;;;;5114286;28;19924;-56
2022/01/05 13:29:40;;;;;;;;;;;22.00;48.70;;;;;;5115062;28;19931;-58
2022/01/05 13:32:09;;;;;;;;;;;22.00;48.70;;;;;;5114827;28;19931;-52
2022/01/05 13:34:37;;;;;;;;;;;22.00;48.70;;;;;;5114402;28;19950;-53
2022/01/05 13:37:05;;;;;;;;;;;22.00;48.80;;;;;;5114758;28;20298;-48
2022/01/05 13:39:36;;;;;;;;;;;22.00;48.80;;;;;;5114451;28;19924;-53
2022/01/05 13:42:03;;;;;;;;;;;22.00;48.80;;;;;;5114521;28;19924;-51
2022/01/05 13:44:30;;;;;;;;;;;22.00;48.80;;;;;;5114013;28;19924;-53
2022/01/05 13:46:58;;;;;;;;;;;22.00;48.80;;;;;;5114617;28;19950;-58
2022/01/05 13:49:25;;;;;;;;;;;22.00;48.80;;;;;;5114562;28;20383;-56
2022/01/05 13:52:10;;;;;;;;;;;22.00;48.90;;;;;;5114342;28;19931;-55
2022/01/05 13:54:41;;;;;;;;;;;22.00;48.90;;;;;;5114475;28;19928;-57
2022/01/05 13:57:28;;;;;;;;;;;21.90;48.80;;;;;;5114170;28;19923;-57
2022/01/05 14:00:00;;;;;;;;;;;21.90;48.80;;;;;;5114967;28;19924;-57
2022/01/05 14:02:28;;;;;;;;;;;21.90;48.90;;;;;;5114118;28;20340;-54
2022/01/05 14:04:58;;;;;;;;;;;21.90;48.80;;;;;;5096033;28;19924;-56
2022/01/05 14:07:27;;;;;;;;;;;21.90;48.80;;;;;;5114314;28;20328;-53
2022/01/05 14:10:08;;;;;;;;;;;21.90;48.80;;;;;;5114071;28;19924;-58
2022/01/05 14:12:48;;;;;;;;;;;21.90;48.80;;;;;;5114140;28;20357;-57
2022/01/05 14:15:16;;;;;;;;;;;21.90;48.80;;;;;;5114222;28;19969;-55
2022/01/05 14:17:58;;;;;;;;;;;21.90;48.80;;;;;;5114313;28;19923;-55
2022/01/05 14:20:25;;;;;;;;;;;21.90;48.90;;;;;;5114553;28;20286;-54
2022/01/05 14:22:59;;;;;;;;;;;21.90;48.80;;;;;;5113950;28;19931;-50
2022/01/05 14:25:33;;;;;;;;;;;21.90;48.80;;;;;;5114108;28;19931;-51
2022/01/05 14:28:17;;;;;;;;;;;21.90;48.90;;;;;;5113254;28;19927;-55
2022/01/05 14:31:05;;;;;;;;;;;21.90;48.90;;;;;;5114097;28;20375;-52
2022/01/05 14:33:39;;;;;;;;;;;21.90;48.80;;;;;;5114298;28;19924;-57